createdAt,value
2022-08-07T00:00:40.154Z,45.67
2022-08-07T00:03:09.118Z,45.86
2022-08-07T00:05:37.157Z,45.62
2022-08-07T00:08:05.242Z,45.79
2022-08-07T00:10:35.789Z,45.83
2022-08-07T00:13:25.646Z,46.06
2022-08-07T00:15:54.036Z,46.00
2022-08-07T00:18:25.807Z,46.38
2022-08-07T00:21:07.942Z,46.25
2022-08-07T00:23:46.569Z,46.60
2022-08-07T00:26:31.119Z,46.68
2022-08-07T00:29:01.758Z,46.61
2022-08-07T00:31:38.103Z,46.39
2022-08-07T00:34:08.718Z,46.56
2022-08-07T00:36:42.610Z,46.75
2022-08-07T00:39:12.902Z,46.83
2022-08-07T00:42:02.121Z,46.81
2022-08-07T00:44:33.414Z,47.08
2022-08-07T00:47:02.122Z,46.90
2022-08-07T00:50:19.187Z,46.97
2022-08-07T00:52:17.696Z,46.96
2022-08-07T00:54:53.684Z,47.25
2022-08-07T00:57:26.095Z,47.21
2022-08-07T00:59:54.146Z,47.36
2022-08-07T01:02:28.673Z,47.38
2022-08-07T01:04:58.796Z,47.59
2022-08-07T01:07:29.290Z,47.65
2022-08-07T01:10:06.144Z,47.58
2022-08-07T01:12:38.923Z,47.68
2022-08-07T01:15:07.426Z,47.71
2022-08-07T01:17:40.050Z,47.82
2022-08-07T01:20:16.851Z,47.50
2022-08-07T01:22:57.823Z,47.82
2022-08-07T01:25:54.930Z,48.05
2022-08-07T01:28:21.975Z,48.04
2022-08-07T01:30:51.259Z,47.93
2022-08-07T01:33:18.993Z,48.17
2022-08-07T01:35:54.030Z,48.52
2022-08-07T01:38:25.016Z,48.22
2022-08-07T01:40:59.516Z,48.26
2022-08-07T01:43:34.697Z,48.29
2022-08-07T01:46:05.694Z,48.46
2022-08-07T01:48:35.809Z,48.36
2022-08-07T01:52:02.399Z,48.63
2022-08-07T01:54:09.938Z,48.66
2022-08-07T01:56:55.157Z,48.71
2022-08-07T01:59:32.810Z,48.54
2022-08-07T02:02:07.419Z,48.72
2022-08-07T02:04:52.573Z,48.91
2022-08-07T02:07:44.863Z,48.66
2022-08-07T02:10:15.283Z,48.63
2022-08-07T02:12:46.400Z,48.85
2022-08-07T02:15:22.699Z,48.78
2022-08-07T02:17:51.986Z,48.95
2022-08-07T02:20:23.727Z,48.81
2022-08-07T02:22:57.489Z,48.77
2022-08-07T02:26:10.429Z,48.98
2022-08-07T02:28:25.365Z,49.11
2022-08-07T02:30:55.632Z,49.11
2022-08-07T02:33:42.000Z,49.37
2022-08-07T02:36:30.917Z,49.10
2022-08-07T02:39:15.980Z,49.38
2022-08-07T02:41:50.555Z,49.36
2022-08-07T02:44:23.738Z,49.54
2022-08-07T02:46:56.526Z,49.28
2022-08-07T02:49:28.621Z,49.50
2022-08-07T02:51:59.074Z,49.48
2022-08-07T02:54:30.869Z,49.49
2022-08-07T02:57:01.836Z,49.63
2022-08-07T02:59:31.559Z,49.63
2022-08-07T03:02:02.055Z,49.99
2022-08-07T03:04:30.963Z,49.67
2022-08-07T03:07:03.434Z,50.11
2022-08-07T03:09:41.870Z,49.70
2022-08-07T03:12:21.998Z,49.84
2022-08-07T03:14:52.511Z,50.02
2022-08-07T03:17:25.270Z,49.85
2022-08-07T03:19:54.707Z,49.91
2022-08-07T03:22:24.315Z,49.93
2022-08-07T03:24:59.813Z,50.07
2022-08-07T03:27:30.571Z,49.73
2022-08-07T03:30:16.000Z,50.08
2022-08-07T03:32:57.015Z,50.15
2022-08-07T03:35:43.827Z,50.04
2022-08-07T03:38:16.431Z,50.22
2022-08-07T03:40:47.947Z,50.35
2022-08-07T03:43:26.604Z,50.60
2022-08-07T03:45:59.622Z,50.60
2022-08-07T03:48:29.735Z,50.46
2022-08-07T03:50:57.932Z,50.65
2022-08-07T03:53:50.238Z,50.47
2022-08-07T03:56:19.098Z,50.58
2022-08-07T03:59:09.858Z,50.52
2022-08-07T04:01:46.067Z,50.77
2022-08-07T04:04:17.713Z,50.87
2022-08-07T04:06:45.407Z,50.84
2022-08-07T04:09:15.144Z,50.90
2022-08-07T04:12:26.331Z,50.94
2022-08-07T04:14:37.430Z,50.95
2022-08-07T04:17:05.406Z,51.10
2022-08-07T04:19:52.029Z,51.03
2022-08-07T04:22:27.522Z,51.36
2022-08-07T04:24:58.700Z,51.46
2022-08-07T04:27:28.233Z,51.41
2022-08-07T04:30:01.664Z,51.32
2022-08-07T04:32:34.923Z,51.39
2022-08-07T04:35:11.395Z,51.44
2022-08-07T04:37:52.825Z,51.57
2022-08-07T04:40:29.667Z,51.70
2022-08-07T04:43:02.159Z,51.52
2022-08-07T04:46:01.001Z,51.74
2022-08-07T04:48:44.602Z,51.97
2022-08-07T04:51:46.739Z,51.99
2022-08-07T04:54:39.069Z,52.00
2022-08-07T04:58:13.928Z,52.19
2022-08-07T05:00:14.595Z,52.42
2022-08-07T05:03:00.653Z,52.67
2022-08-07T05:05:53.911Z,52.83
2022-08-07T05:08:59.570Z,53.07
2022-08-07T05:11:56.816Z,52.96
2022-08-07T05:14:53.407Z,53.16
2022-08-07T05:17:52.231Z,52.69
2022-08-07T05:20:16.793Z,52.44
2022-08-07T05:22:47.596Z,52.00
2022-08-07T05:25:26.250Z,51.03
2022-08-07T05:28:20.710Z,50.44
2022-08-07T05:30:52.688Z,49.18
2022-08-07T05:33:21.548Z,48.42
2022-08-07T05:35:51.207Z,47.71
2022-08-07T05:39:00.018Z,47.04
2022-08-07T05:41:15.847Z,45.77
2022-08-07T05:44:12.149Z,45.02
2022-08-07T05:46:38.888Z,44.17
2022-08-07T05:49:11.764Z,43.60
2022-08-07T05:51:46.342Z,43.44
2022-08-07T05:54:31.114Z,43.48
2022-08-07T05:57:04.112Z,43.59
2022-08-07T05:59:38.894Z,43.22
2022-08-07T06:02:30.516Z,43.12
2022-08-07T06:05:04.875Z,42.71
2022-08-07T06:08:29.486Z,41.85
2022-08-07T06:10:21.636Z,42.29
2022-08-07T06:12:49.592Z,41.74
2022-08-07T06:15:20.018Z,41.35
2022-08-07T06:17:53.926Z,41.23
2022-08-07T06:20:25.555Z,41.11
2022-08-07T06:23:46.145Z,40.83
2022-08-07T06:25:57.191Z,40.39
2022-08-07T06:28:27.318Z,40.02
2022-08-07T06:30:56.255Z,39.51
2022-08-07T06:33:25.197Z,38.93
2022-08-07T06:36:06.715Z,38.68
2022-08-07T06:38:39.374Z,38.37
2022-08-07T06:42:00.377Z,38.99
2022-08-07T06:44:14.778Z,38.62
2022-08-07T06:46:43.448Z,37.78
2022-08-07T06:49:20.975Z,37.37
2022-08-07T06:51:50.012Z,36.84
2022-08-07T06:55:34.339Z,36.33
2022-08-07T06:57:08.546Z,36.48
2022-08-07T07:00:14.657Z,37.08
2022-08-07T07:02:48.873Z,36.70
2022-08-07T07:06:05.408Z,36.14
2022-08-07T07:08:07.109Z,36.24
2022-08-07T07:10:39.512Z,36.09
2022-08-07T07:13:43.674Z,35.31
2022-08-07T07:16:19.533Z,35.78
2022-08-07T07:18:56.216Z,34.84
2022-08-07T07:21:40.565Z,33.98
2022-08-07T07:24:17.558Z,33.43
2022-08-07T07:26:51.914Z,32.97
2022-08-07T07:29:57.224Z,32.72
2022-08-07T07:32:14.035Z,32.72
2022-08-07T07:34:48.682Z,32.22
2022-08-07T07:37:44.361Z,32.03
2022-08-07T07:40:10.166Z,31.98
2022-08-07T07:42:43.932Z,31.70
2022-08-07T07:45:22.739Z,32.00
2022-08-07T07:48:11.304Z,31.68
2022-08-07T07:50:54.353Z,31.24
2022-08-07T07:53:25.785Z,31.02
2022-08-07T07:55:57.765Z,31.04
2022-08-07T07:58:36.962Z,31.50
2022-08-07T08:02:01.572Z,32.34
2022-08-07T08:04:09.773Z,31.82
2022-08-07T08:06:52.296Z,32.00
2022-08-07T08:09:24.498Z,31.55
2022-08-07T08:12:02.907Z,31.89
2022-08-07T08:14:36.478Z,31.33
2022-08-07T08:17:56.118Z,31.89
2022-08-07T08:20:17.975Z,32.08
2022-08-07T08:23:12.855Z,31.31
2022-08-07T08:26:06.991Z,31.07
2022-08-07T08:28:43.364Z,31.38
2022-08-07T08:31:22.951Z,32.04
2022-08-07T08:33:58.231Z,31.74
2022-08-07T08:36:30.770Z,32.37
2022-08-07T08:39:01.901Z,31.82
2022-08-07T08:41:58.282Z,32.14
2022-08-07T08:44:44.355Z,32.42
2022-08-07T08:47:31.329Z,32.59
2022-08-07T08:50:40.720Z,33.69
2022-08-07T08:53:33.764Z,33.56
2022-08-07T08:56:33.554Z,33.83
2022-08-07T08:59:27.764Z,34.53
2022-08-07T09:02:16.394Z,35.16
2022-08-07T09:05:36.674Z,35.39
2022-08-07T09:08:41.443Z,34.78
2022-08-07T09:11:51.188Z,34.52
2022-08-07T09:14:41.042Z,34.48
2022-08-07T09:17:58.594Z,34.69
2022-08-07T09:20:35.349Z,35.38
2022-08-07T09:24:31.727Z,34.71
2022-08-07T09:26:57.195Z,35.35
2022-08-07T09:30:05.755Z,34.59
2022-08-07T09:33:16.816Z,34.40
2022-08-07T09:36:06.579Z,34.12
2022-08-07T09:39:53.093Z,34.42
2022-08-07T09:42:34.966Z,35.13
2022-08-07T09:47:50.042Z,35.25
2022-08-07T09:50:01.780Z,35.70
2022-08-07T09:52:35.301Z,34.83
2022-08-07T09:56:03.580Z,34.75
2022-08-07T09:59:14.982Z,34.48
2022-08-07T10:02:19.127Z,34.54
2022-08-07T10:05:59.253Z,34.04
2022-08-07T10:09:05.434Z,34.64
2022-08-07T10:12:01.806Z,34.35
2022-08-07T10:14:55.207Z,34.40
2022-08-07T10:18:00.857Z,34.59
2022-08-07T10:21:50.710Z,33.58
2022-08-07T10:24:46.088Z,34.44
2022-08-07T10:27:46.576Z,33.93
2022-08-07T10:30:27.535Z,33.59
2022-08-07T10:34:15.200Z,33.88
2022-08-07T10:36:47.621Z,33.89
2022-08-07T10:40:08.850Z,34.30
2022-08-07T10:43:02.343Z,34.91
2022-08-07T10:45:44.639Z,34.16
2022-08-07T10:48:38.714Z,36.23
2022-08-07T10:51:39.468Z,33.55
2022-08-07T10:54:38.111Z,33.38
2022-08-07T10:57:51.605Z,32.54
2022-08-07T11:00:36.532Z,33.05
2022-08-07T11:03:28.082Z,33.10
2022-08-07T11:06:18.288Z,32.69
2022-08-07T11:09:11.686Z,32.83
2022-08-07T11:12:06.064Z,32.13
2022-08-07T11:15:00.618Z,32.94
2022-08-07T11:17:48.655Z,32.47
2022-08-07T11:20:25.148Z,32.79
2022-08-07T11:23:41.529Z,33.15
2022-08-07T11:26:31.721Z,33.10
2022-08-07T11:29:41.136Z,33.06
2022-08-07T11:32:25.776Z,32.87
2022-08-07T11:35:02.528Z,32.32
2022-08-07T11:38:30.680Z,32.31
2022-08-07T11:41:22.283Z,31.84
2022-08-07T11:44:21.313Z,31.90
2022-08-07T11:47:15.631Z,31.83
2022-08-07T11:50:30.410Z,31.77
2022-08-07T11:53:28.459Z,32.08
2022-08-07T11:56:28.068Z,31.73
2022-08-07T12:00:11.640Z,31.82
2022-08-07T12:03:44.516Z,32.43
2022-08-07T12:06:40.228Z,31.73
2022-08-07T12:09:34.652Z,31.81
2022-08-07T12:12:13.760Z,31.66
2022-08-07T12:15:05.374Z,31.74
2022-08-07T12:17:59.054Z,31.82
2022-08-07T12:21:02.290Z,32.04
2022-08-07T12:24:07.503Z,31.52
2022-08-07T12:27:04.978Z,32.03
2022-08-07T12:30:04.115Z,31.99
2022-08-07T12:33:01.878Z,32.44
2022-08-07T12:35:37.007Z,34.47
2022-08-07T12:38:11.467Z,31.76
2022-08-07T12:40:48.783Z,32.31
2022-08-07T12:44:02.573Z,31.18
2022-08-07T12:46:31.972Z,31.21
2022-08-07T12:49:25.532Z,31.49
2022-08-07T12:52:19.256Z,31.11
2022-08-07T12:55:09.338Z,30.96
2022-08-07T12:58:00.738Z,30.80
2022-08-07T13:00:52.186Z,30.53
2022-08-07T13:04:18.927Z,30.32
2022-08-07T13:08:18.714Z,30.11
2022-08-07T13:10:44.810Z,29.68
2022-08-07T13:14:10.375Z,30.44
2022-08-07T13:17:02.339Z,29.79
2022-08-07T13:19:51.119Z,29.14
2022-08-07T13:22:33.003Z,29.41
2022-08-07T13:25:39.373Z,29.48
2022-08-07T13:28:23.976Z,29.04
2022-08-07T13:31:02.049Z,28.46
2022-08-07T13:34:33.768Z,28.59
2022-08-07T13:37:19.856Z,28.99
2022-08-07T13:40:36.026Z,29.39
2022-08-07T13:43:05.128Z,29.23
2022-08-07T13:46:16.439Z,29.00
2022-08-07T13:48:35.010Z,28.08
2022-08-07T13:51:20.511Z,27.61
2022-08-07T13:54:03.299Z,28.39
2022-08-07T13:56:35.340Z,28.32
2022-08-07T13:59:20.338Z,28.03
2022-08-07T14:02:08.444Z,27.99
2022-08-07T14:04:54.366Z,27.40
2022-08-07T14:07:28.520Z,27.20
2022-08-07T14:10:17.736Z,27.41
2022-08-07T14:12:57.346Z,27.50
2022-08-07T14:15:40.781Z,27.73
2022-08-07T14:18:28.500Z,27.46
2022-08-07T14:21:08.441Z,27.33
2022-08-07T14:24:02.048Z,27.32
2022-08-07T14:26:50.252Z,27.67
2022-08-07T14:30:05.395Z,27.89
2022-08-07T14:32:12.689Z,27.96
2022-08-07T14:34:46.414Z,27.18
2022-08-07T14:37:16.957Z,27.38
2022-08-07T14:40:16.375Z,26.70
2022-08-07T14:43:01.325Z,26.47
2022-08-07T14:48:27.671Z,26.66
2022-08-07T14:50:58.478Z,26.95
2022-08-07T15:05:04.419Z,26.56
2022-08-07T15:16:14.655Z,26.13
2022-08-07T15:27:26.181Z,26.92
2022-08-07T15:30:16.451Z,26.94
2022-08-07T15:32:51.021Z,27.62
2022-08-07T15:36:02.591Z,26.83
2022-08-07T15:38:31.196Z,26.55
2022-08-07T15:41:23.883Z,26.58
2022-08-07T15:44:10.457Z,26.36
2022-08-07T15:46:49.951Z,26.31
2022-08-07T15:50:04.951Z,26.92
2022-08-07T15:52:17.078Z,27.45
2022-08-07T15:54:50.738Z,26.54
2022-08-07T15:57:40.321Z,27.26
2022-08-07T16:00:31.825Z,26.61
2022-08-07T16:03:04.770Z,26.78
2022-08-07T16:05:33.288Z,26.96
2022-08-07T16:08:30.944Z,27.01
2022-08-07T16:11:17.425Z,26.76
2022-08-07T16:14:05.364Z,29.05
2022-08-07T16:18:02.003Z,27.85
2022-08-07T16:20:37.377Z,27.78
2022-08-07T16:23:54.282Z,27.92
2022-08-07T16:26:32.414Z,28.37
2022-08-07T16:30:09.892Z,27.84
2022-08-07T16:32:32.773Z,28.32
2022-08-07T16:35:58.711Z,27.88
2022-08-07T16:38:57.520Z,28.05
2022-08-07T16:41:54.208Z,28.53
2022-08-07T16:45:14.217Z,28.28
2022-08-07T16:48:15.107Z,29.01
2022-08-07T16:51:54.092Z,28.95
2022-08-07T16:54:34.560Z,28.45
2022-08-07T16:58:01.557Z,28.62
2022-08-07T17:00:30.086Z,28.87
2022-08-07T17:03:57.746Z,28.84
2022-08-07T17:07:02.960Z,28.74
2022-08-07T17:10:05.980Z,29.05
2022-08-07T17:13:16.937Z,28.72
2022-08-07T17:16:03.459Z,28.30
2022-08-07T17:18:46.056Z,28.08
2022-08-07T17:21:22.966Z,28.24
2022-08-07T17:24:23.645Z,28.38
2022-08-07T17:27:20.004Z,28.92
2022-08-07T17:30:16.122Z,29.03
2022-08-07T17:34:09.248Z,29.22
2022-08-07T17:36:26.005Z,28.85
2022-08-07T17:39:15.648Z,28.73
2022-08-07T17:42:04.932Z,28.39
2022-08-07T17:44:50.357Z,28.66
2022-08-07T17:47:42.768Z,29.15
2022-08-07T17:50:30.157Z,28.78
2022-08-07T17:53:07.703Z,28.87
2022-08-07T17:56:06.460Z,29.03
2022-08-07T17:58:46.148Z,28.96
2022-08-07T18:01:36.643Z,29.26
2022-08-07T18:04:42.135Z,29.74
2022-08-07T18:07:36.120Z,29.78
2022-08-07T18:10:32.853Z,29.66
2022-08-07T18:13:20.537Z,29.46
2022-08-07T18:16:10.284Z,29.27
2022-08-07T18:21:06.939Z,29.36
2022-08-07T18:21:55.054Z,29.30
2022-08-07T18:24:36.900Z,29.00
2022-08-07T18:27:45.442Z,29.51
2022-08-07T18:30:31.055Z,29.90
2022-08-07T18:33:37.873Z,30.18
2022-08-07T18:36:32.680Z,30.49
2022-08-07T18:40:08.864Z,30.32
2022-08-07T18:42:39.502Z,30.55
2022-08-07T18:45:44.507Z,30.55
2022-08-07T18:50:06.000Z,31.90
2022-08-07T18:52:25.647Z,31.08
2022-08-07T18:54:33.413Z,31.58
2022-08-07T18:57:46.902Z,31.52
2022-08-07T19:00:54.932Z,31.64
2022-08-07T19:03:41.352Z,31.39
2022-08-07T19:06:34.013Z,31.88
2022-08-07T19:09:56.851Z,32.16
2022-08-07T19:12:19.009Z,32.01
2022-08-07T19:16:02.444Z,32.36
2022-08-07T19:18:34.956Z,32.23
2022-08-07T19:21:58.461Z,32.71
2022-08-07T19:25:06.840Z,32.52
2022-08-07T19:28:58.336Z,32.91
2022-08-07T19:31:01.924Z,32.93
2022-08-07T19:33:35.001Z,33.53
2022-08-07T19:36:04.120Z,33.79
2022-08-07T19:38:34.296Z,33.93
2022-08-07T19:41:02.598Z,34.08
2022-08-07T19:43:43.963Z,34.47
2022-08-07T19:46:26.364Z,34.46
2022-08-07T19:49:13.377Z,34.07
2022-08-07T19:51:52.707Z,35.05
2022-08-07T19:54:33.818Z,34.83
2022-08-07T19:58:02.984Z,35.07
2022-08-07T20:00:21.875Z,35.12
2022-08-07T20:03:02.912Z,35.39
2022-08-07T20:06:00.094Z,35.48
2022-08-07T20:08:28.258Z,35.50
2022-08-07T20:11:03.919Z,35.43
2022-08-07T20:13:55.586Z,35.82
2022-08-07T20:16:34.697Z,35.76
2022-08-07T20:19:06.082Z,35.77
2022-08-07T20:21:46.620Z,35.72
2022-08-07T20:24:32.890Z,36.15
2022-08-07T20:27:03.120Z,35.95
2022-08-07T20:29:48.769Z,35.96
2022-08-07T20:32:25.803Z,36.08
2022-08-07T20:34:57.713Z,36.30
2022-08-07T20:37:37.000Z,36.20
2022-08-07T20:40:32.319Z,36.05
2022-08-07T20:43:03.730Z,36.35
2022-08-07T20:46:25.637Z,35.97
2022-08-07T20:48:31.122Z,36.06
2022-08-07T20:51:09.255Z,35.88
2022-08-07T20:54:04.618Z,35.98
2022-08-07T20:56:30.743Z,35.68
2022-08-07T20:59:05.086Z,35.63
2022-08-07T21:01:45.338Z,35.80
2022-08-07T21:04:23.641Z,36.19
2022-08-07T21:06:56.896Z,36.14
2022-08-07T21:09:51.914Z,36.32
2022-08-07T21:12:25.923Z,36.11
2022-08-07T21:14:58.964Z,36.07
2022-08-07T21:18:09.705Z,36.03
2022-08-07T21:20:19.064Z,36.25
2022-08-07T21:22:57.893Z,36.17
2022-08-07T21:25:58.496Z,36.22
2022-08-07T21:28:49.063Z,36.22
2022-08-07T21:32:10.757Z,36.20
2022-08-07T21:34:56.906Z,36.68
2022-08-07T21:37:59.479Z,36.89
2022-08-07T21:40:45.428Z,36.66
2022-08-07T21:43:56.911Z,36.91
2022-08-07T21:46:54.256Z,37.01
2022-08-07T21:50:03.586Z,37.22
2022-08-07T21:53:08.643Z,36.99
2022-08-07T21:56:35.835Z,37.51
2022-08-07T22:00:04.382Z,37.61
2022-08-07T22:02:45.022Z,37.46
2022-08-07T22:05:45.544Z,37.37
2022-08-07T22:08:23.191Z,37.52
2022-08-07T22:10:58.245Z,37.70
2022-08-07T22:13:52.990Z,37.84
2022-08-07T22:16:42.255Z,37.91
2022-08-07T22:19:30.201Z,37.70
2022-08-07T22:22:28.755Z,38.16
2022-08-07T22:25:02.870Z,38.17
2022-08-07T22:28:29.476Z,38.25
2022-08-07T22:31:05.100Z,38.46
2022-08-07T22:33:56.635Z,38.31
2022-08-07T22:36:46.444Z,38.92
2022-08-07T22:39:25.797Z,38.21
2022-08-07T22:42:19.785Z,38.58
2022-08-07T22:44:58.114Z,38.40
2022-08-07T22:48:01.227Z,38.70
2022-08-07T22:51:18.335Z,38.96
2022-08-07T22:54:26.127Z,38.89
2022-08-07T22:57:37.370Z,39.06
2022-08-07T23:00:28.506Z,39.07
2022-08-07T23:03:23.789Z,39.04
2022-08-07T23:06:37.374Z,39.28
2022-08-07T23:10:00.732Z,39.57
2022-08-07T23:12:42.917Z,39.26
2022-08-07T23:16:07.028Z,39.18
2022-08-07T23:18:42.304Z,39.60
2022-08-07T23:21:29.802Z,39.43
2022-08-07T23:24:22.571Z,39.43
2022-08-07T23:27:33.558Z,39.62
2022-08-07T23:30:39.254Z,39.65
2022-08-07T23:34:34.162Z,39.94
2022-08-07T23:36:54.671Z,39.98
2022-08-07T23:40:36.341Z,40.10
2022-08-07T23:43:16.673Z,39.90
2022-08-07T23:46:20.050Z,40.09
2022-08-07T23:49:15.877Z,40.25
2022-08-07T23:52:59.710Z,40.04
2022-08-07T23:54:57.499Z,40.17
2022-08-07T23:57:34.672Z,40.15
